Time;durP1;ratioP1;P1;durP2;ratioP2;P2;SDS_P1;SDS_P2;PMS_P1;PMS_P2;Temp;Humidity;BMP_temperature;BMP_pressure;BME280_temperature;BME280_humidity;BME280_pressure;Samples;Min_cycle;Max_cycle;Signal;HPM_P1;HPM_P2
2023/03/05 00:00:06;;;;;;;9.52;3.13;;;;;;;;;;5164398;27;20047;-62
2023/03/05 00:02:32;;;;;;;8.63;3.47;;;;;;;;;;5166349;27;20046;-61
2023/03/05 00:04:59;;;;;;;43.03;12.63;;;;;;;;;;5165074;27;20057;-61
2023/03/05 00:07:25;;;;;;;44.65;13.52;;;;;;;;;;5166405;27;20063;-62
2023/03/05 00:09:51;;;;;;;23.67;6.80;;;;;;;;;;5165608;27;20575;-61
2023/03/05 00:12:18;;;;;;;24.70;6.28;;;;;;;;;;5166253;27;20042;-61
2023/03/05 00:14:44;;;;;;;25.52;6.60;;;;;;;;;;5165825;27;20035;-61
2023/03/05 00:17:10;;;;;;;27.15;7.57;;;;;;;;;;5165387;27;20054;-61
2023/03/05 00:19:37;;;;;;;17.75;5.95;;;;;;;;;;5141569;27;20138;-61
2023/03/05 00:22:03;;;;;;;17.75;5.78;;;;;;;;;;5165875;27;20047;-62
2023/03/05 00:24:30;;;;;;;10.05;3.85;;;;;;;;;;5166123;27;20053;-61
2023/03/05 00:26:56;;;;;;;10.57;2.97;;;;;;;;;;5163700;27;20050;-62
2023/03/05 00:29:23;;;;;;;11.55;3.38;;;;;;;;;;5135866;27;20077;-62
2023/03/05 00:31:49;;;;;;;14.45;3.88;;;;;;;;;;5126659;27;20510;-61
2023/03/05 00:34:17;;;;;;;44.85;13.20;;;;;;;;;;5159186;27;20046;-61
2023/03/05 00:36:45;;;;;;;33.45;10.20;;;;;;;;;;5165809;27;20141;-62
2023/03/05 00:39:12;;;;;;;38.10;10.15;;;;;;;;;;5165487;27;20047;-61
2023/03/05 00:41:39;;;;;;;40.58;11.02;;;;;;;;;;5165171;27;20108;-61
2023/03/05 00:44:05;;;;;;;66.03;18.10;;;;;;;;;;5164148;27;20042;-61
2023/03/05 00:46:32;;;;;;;56.50;15.98;;;;;;;;;;5144830;27;20097;-62
2023/03/05 00:48:58;;;;;;;28.27;8.75;;;;;;;;;;5146560;27;20051;-61
2023/03/05 00:51:25;;;;;;;18.10;4.97;;;;;;;;;;5144902;27;20066;-60
2023/03/05 00:53:51;;;;;;;37.97;11.60;;;;;;;;;;5144379;27;20300;-61
2023/03/05 00:56:18;;;;;;;45.15;13.85;;;;;;;;;;5163285;27;20069;-62
2023/03/05 00:58:44;;;;;;;30.70;8.45;;;;;;;;;;5152216;27;20086;-61
2023/03/05 01:01:11;;;;;;;47.85;12.93;;;;;;;;;;5165366;27;20431;-61
2023/03/05 01:03:37;;;;;;;104.68;30.70;;;;;;;;;;5165243;27;20076;-61
2023/03/05 01:06:06;;;;;;;44.35;12.52;;;;;;;;;;5165387;27;20134;-61
2023/03/05 01:08:33;;;;;;;35.08;10.02;;;;;;;;;;5163904;27;20059;-62
2023/03/05 01:10:59;;;;;;;38.80;10.00;;;;;;;;;;5164363;27;20046;-62
2023/03/05 01:13:26;;;;;;;40.60;11.88;;;;;;;;;;5165575;27;20054;-61
2023/03/05 01:15:52;;;;;;;78.10;20.80;;;;;;;;;;5161887;27;20485;-61
2023/03/05 01:18:19;;;;;;;59.55;16.33;;;;;;;;;;5163888;27;20565;-61
2023/03/05 01:20:46;;;;;;;32.03;8.88;;;;;;;;;;5164490;27;20055;-61
2023/03/05 01:23:12;;;;;;;47.05;14.25;;;;;;;;;;5164297;27;20043;-61
2023/03/05 01:25:39;;;;;;;26.90;7.57;;;;;;;;;;5165209;27;20570;-61
2023/03/05 01:28:05;;;;;;;61.95;15.45;;;;;;;;;;5161913;27;20051;-61
2023/03/05 01:30:32;;;;;;;51.85;15.40;;;;;;;;;;5154422;27;20054;-62
2023/03/05 01:32:58;;;;;;;63.70;16.35;;;;;;;;;;5165791;27;20519;-62
2023/03/05 01:35:25;;;;;;;82.65;25.48;;;;;;;;;;5165388;27;20051;-63
2023/03/05 01:37:52;;;;;;;49.65;14.52;;;;;;;;;;5162690;27;20043;-62
2023/03/05 01:40:20;;;;;;;102.10;28.35;;;;;;;;;;5164845;27;20165;-62
2023/03/05 01:42:48;;;;;;;90.07;27.83;;;;;;;;;;5161218;27;20054;-62
2023/03/05 01:45:16;;;;;;;63.92;19.88;;;;;;;;;;5143975;27;20054;-62
2023/03/05 01:47:42;;;;;;;109.72;32.55;;;;;;;;;;5154560;27;20054;-61
2023/03/05 01:50:11;;;;;;;197.85;84.90;;;;;;;;;;5163625;27;20503;-62
2023/03/05 01:52:39;;;;;;;48.92;23.85;;;;;;;;;;5162770;27;20047;-61
2023/03/05 01:55:08;;;;;;;41.03;27.90;;;;;;;;;;5146538;27;20054;-62
2023/03/05 01:57:43;;;;;;;14.40;12.18;;;;;;;;;;5138998;27;20043;-62
2023/03/05 02:00:11;;;;;;;13.10;4.95;;;;;;;;;;5164691;27;20042;-61
2023/03/05 02:02:38;;;;;;;13.40;4.50;;;;;;;;;;5163975;27;20496;-61
2023/03/05 02:05:09;;;;;;;10.20;3.03;;;;;;;;;;5163925;27;20503;-62
2023/03/05 02:07:38;;;;;;;9.98;3.08;;;;;;;;;;5164686;27;20497;-62
2023/03/05 02:10:24;;;;;;;5.78;2.80;;;;;;;;;;5163268;27;20054;-61
2023/03/05 02:12:52;;;;;;;8.93;3.60;;;;;;;;;;5164509;27;20079;-62
2023/03/05 02:15:18;;;;;;;6.80;2.60;;;;;;;;;;5132705;27;20513;-62
2023/03/05 02:17:44;;;;;;;9.30;3.10;;;;;;;;;;5143067;27;20556;-62
2023/03/05 02:20:13;;;;;;;10.32;3.30;;;;;;;;;;5143825;27;20144;-62
2023/03/05 02:22:39;;;;;;;9.32;3.13;;;;;;;;;;5149304;27;20054;-62
2023/03/05 02:25:19;;;;;;;13.68;3.85;;;;;;;;;;5168001;27;20043;-62
2023/03/05 02:27:50;;;;;;;9.70;3.30;;;;;;;;;;5164171;27;20050;-62
2023/03/05 02:30:17;;;;;;;12.35;3.67;;;;;;;;;;5165931;27;20205;-62
2023/03/05 02:32:43;;;;;;;10.70;3.53;;;;;;;;;;5154921;27;20047;-61
2023/03/05 02:35:10;;;;;;;10.18;3.35;;;;;;;;;;5147053;27;20043;-62
2023/03/05 02:37:36;;;;;;;8.00;3.10;;;;;;;;;;5158943;27;20501;-62
2023/03/05 02:40:03;;;;;;;6.03;2.38;;;;;;;;;;5150043;27;20054;-63
2023/03/05 02:42:32;;;;;;;12.88;3.85;;;;;;;;;;5148552;27;20061;-61
2023/03/05 02:44:59;;;;;;;8.95;3.55;;;;;;;;;;5155271;27;20524;-62
2023/03/05 02:47:26;;;;;;;14.00;3.63;;;;;;;;;;5147307;27;20489;-61
2023/03/05 02:49:53;;;;;;;8.20;3.55;;;;;;;;;;5155658;27;20145;-62
2023/03/05 02:52:22;;;;;;;10.90;3.05;;;;;;;;;;5163043;27;20055;-62
2023/03/05 02:54:49;;;;;;;11.20;2.97;;;;;;;;;;5165227;27;20531;-61
2023/03/05 02:57:15;;;;;;;9.75;3.63;;;;;;;;;;5165634;27;20900;-62
2023/03/05 02:59:41;;;;;;;13.60;2.92;;;;;;;;;;5167739;27;20499;-62
2023/03/05 03:02:08;;;;;;;9.50;3.60;;;;;;;;;;5166689;27;20051;-62
2023/03/05 03:04:34;;;;;;;8.90;3.47;;;;;;;;;;5167397;27;20050;-61
2023/03/05 03:07:00;;;;;;;9.77;3.17;;;;;;;;;;5166647;27;20547;-63
2023/03/05 03:09:27;;;;;;;6.53;2.65;;;;;;;;;;5167409;27;20149;-62
2023/03/05 03:11:53;;;;;;;12.20;3.30;;;;;;;;;;5165348;27;20050;-62
2023/03/05 03:14:20;;;;;;;11.32;3.78;;;;;;;;;;5152741;27;20511;-62
2023/03/05 03:16:46;;;;;;;13.30;3.67;;;;;;;;;;5146046;27;20059;-63
2023/03/05 03:19:12;;;;;;;6.13;2.53;;;;;;;;;;5146091;27;20096;-62
2023/03/05 03:21:39;;;;;;;10.82;3.25;;;;;;;;;;5161008;27;20447;-62
2023/03/05 03:24:05;;;;;;;10.70;3.10;;;;;;;;;;5166443;27;20038;-62
2023/03/05 03:26:32;;;;;;;5.47;2.67;;;;;;;;;;5165415;27;20103;-62
2023/03/05 03:28:58;;;;;;;5.80;2.47;;;;;;;;;;5167651;27;20123;-62
2023/03/05 03:31:24;;;;;;;7.78;2.50;;;;;;;;;;5166569;27;20043;-62
2023/03/05 03:33:51;;;;;;;8.93;2.35;;;;;;;;;;5164499;27;20057;-62
2023/03/05 03:36:17;;;;;;;7.18;2.90;;;;;;;;;;5145300;27;20124;-63
2023/03/05 03:38:44;;;;;;;6.63;2.40;;;;;;;;;;5145773;27;20053;-63
2023/03/05 03:41:10;;;;;;;9.35;2.85;;;;;;;;;;5146274;27;20143;-62
2023/03/05 03:43:37;;;;;;;6.22;2.33;;;;;;;;;;5153703;27;20047;-61
2023/03/05 03:46:04;;;;;;;6.68;2.17;;;;;;;;;;5145961;27;20051;-61
2023/03/05 03:48:31;;;;;;;7.55;2.70;;;;;;;;;;5165294;27;20559;-61
2023/03/05 03:50:58;;;;;;;8.73;2.40;;;;;;;;;;5164967;27;20047;-62
2023/03/05 03:53:24;;;;;;;7.40;2.45;;;;;;;;;;5164662;27;20061;-61
2023/03/05 03:55:56;;;;;;;5.40;1.98;;;;;;;;;;5165269;27;20043;-61
2023/03/05 03:58:22;;;;;;;5.78;2.33;;;;;;;;;;5166504;27;20076;-61
2023/03/05 04:00:48;;;;;;;5.97;2.00;;;;;;;;;;5165415;27;20054;-61
2023/03/05 04:03:15;;;;;;;5.22;2.00;;;;;;;;;;5164398;27;20053;-62
2023/03/05 04:05:41;;;;;;;5.38;1.95;;;;;;;;;;5166084;27;20050;-61
2023/03/05 04:08:10;;;;;;;4.78;1.98;;;;;;;;;;5165918;27;20103;-62
2023/03/05 04:10:38;;;;;;;11.95;2.60;;;;;;;;;;5166061;27;20127;-62
2023/03/05 04:13:05;;;;;;;9.23;2.17;;;;;;;;;;5164820;27;20448;-62
2023/03/05 04:15:32;;;;;;;9.20;2.22;;;;;;;;;;5166420;27;20587;-62
2023/03/05 04:17:59;;;;;;;9.32;1.98;;;;;;;;;;5165494;27;20051;-61
2023/03/05 04:20:25;;;;;;;7.45;2.10;;;;;;;;;;5166326;27;20103;-60
2023/03/05 04:22:52;;;;;;;5.10;1.73;;;;;;;;;;5163964;27;20053;-60
2023/03/05 04:25:18;;;;;;;5.10;2.08;;;;;;;;;;5164508;27;20513;-62
2023/03/05 04:27:44;;;;;;;7.85;2.70;;;;;;;;;;5165062;27;20134;-61
2023/03/05 04:30:13;;;;;;;6.47;2.35;;;;;;;;;;5147502;27;20073;-62
2023/03/05 04:32:40;;;;;;;4.28;1.45;;;;;;;;;;5164597;27;20523;-61
2023/03/05 04:35:06;;;;;;;4.90;1.60;;;;;;;;;;5164741;27;20191;-61
2023/03/05 04:37:33;;;;;;;10.68;2.63;;;;;;;;;;5166386;27;20047;-62
2023/03/05 04:39:59;;;;;;;5.93;2.08;;;;;;;;;;5166433;27;20058;-61
2023/03/05 04:42:26;;;;;;;7.15;1.98;;;;;;;;;;5163777;27;20448;-61
2023/03/05 04:44:52;;;;;;;3.90;1.67;;;;;;;;;;5152694;27;20515;-61
2023/03/05 04:47:18;;;;;;;9.88;2.38;;;;;;;;;;5163678;27;20106;-61
2023/03/05 04:49:44;;;;;;;4.38;2.13;;;;;;;;;;5164427;27;20523;-61
2023/03/05 04:52:11;;;;;;;7.88;2.00;;;;;;;;;;5165512;27;20099;-61
2023/03/05 04:54:38;;;;;;;6.93;1.92;;;;;;;;;;5163390;27;20059;-63
2023/03/05 04:57:04;;;;;;;8.32;2.28;;;;;;;;;;5162273;27;20535;-61
2023/03/05 04:59:31;;;;;;;8.88;2.22;;;;;;;;;;5166065;27;20086;-61
2023/03/05 05:01:57;;;;;;;7.70;1.98;;;;;;;;;;5165975;27;20137;-62
2023/03/05 05:04:24;;;;;;;5.28;2.33;;;;;;;;;;5165301;27;20059;-62
2023/03/05 05:06:53;;;;;;;5.53;1.70;;;;;;;;;;5162579;27;20179;-62
2023/03/05 05:09:19;;;;;;;7.07;2.30;;;;;;;;;;5164839;27;20134;-62
2023/03/05 05:11:46;;;;;;;8.75;1.48;;;;;;;;;;5162019;27;20047;-61
2023/03/05 05:14:12;;;;;;;10.77;1.60;;;;;;;;;;5164751;27;20053;-62
2023/03/05 05:16:38;;;;;;;8.27;1.88;;;;;;;;;;5163162;27;20082;-62
2023/03/05 05:19:05;;;;;;;3.78;1.40;;;;;;;;;;5164939;27;20409;-61
2023/03/05 05:21:31;;;;;;;3.70;2.45;;;;;;;;;;5165645;27;20046;-62
2023/03/05 05:23:57;;;;;;;6.72;1.63;;;;;;;;;;5164380;27;20051;-61
2023/03/05 05:26:24;;;;;;;2.88;1.50;;;;;;;;;;5152901;27;20059;-61
2023/03/05 05:28:50;;;;;;;4.20;1.35;;;;;;;;;;5164982;27;20632;-60
2023/03/05 05:31:16;;;;;;;6.60;1.55;;;;;;;;;;5165341;27;20047;-62
2023/03/05 05:33:43;;;;;;;8.32;1.70;;;;;;;;;;5164968;27;20568;-61
2023/03/05 05:36:11;;;;;;;8.57;1.75;;;;;;;;;;5162897;27;20150;-61
2023/03/05 05:38:37;;;;;;;5.43;1.77;;;;;;;;;;5164667;27;20047;-61
2023/03/05 05:41:05;;;;;;;2.08;1.50;;;;;;;;;;5155300;27;20541;-61
2023/03/05 05:43:31;;;;;;;8.70;1.92;;;;;;;;;;5164983;27;20046;-61
2023/03/05 05:46:01;;;;;;;3.42;1.45;;;;;;;;;;5160000;27;20124;-61
2023/03/05 05:48:32;;;;;;;3.35;1.52;;;;;;;;;;5153978;27;20119;-62
2023/03/05 05:50:59;;;;;;;12.13;1.88;;;;;;;;;;5147974;27;20054;-61
2023/03/05 05:53:25;;;;;;;4.50;2.00;;;;;;;;;;5160758;27;20500;-61
2023/03/05 05:55:51;;;;;;;6.65;2.13;;;;;;;;;;5151609;27;20048;-61
2023/03/05 05:58:18;;;;;;;7.47;2.05;;;;;;;;;;5164426;27;20042;-62
2023/03/05 06:00:44;;;;;;;3.47;1.60;;;;;;;;;;5162339;27;20133;-62
2023/03/05 06:03:11;;;;;;;2.90;1.63;;;;;;;;;;5168238;27;20054;-61
2023/03/05 06:05:37;;;;;;;4.78;1.95;;;;;;;;;;5160312;27;20047;-63
2023/03/05 06:08:03;;;;;;;8.73;1.88;;;;;;;;;;5155284;27;20054;-61
2023/03/05 06:10:30;;;;;;;7.07;2.05;;;;;;;;;;5164833;27;20073;-63
2023/03/05 06:12:56;;;;;;;4.93;1.80;;;;;;;;;;5168369;27;20055;-62
2023/03/05 06:15:23;;;;;;;6.30;1.90;;;;;;;;;;5168667;27;20062;-61
2023/03/05 06:17:49;;;;;;;8.15;1.88;;;;;;;;;;5167588;27;20547;-61
2023/03/05 06:20:15;;;;;;;6.88;2.15;;;;;;;;;;5167226;27;20055;-62
2023/03/05 06:22:42;;;;;;;6.15;1.77;;;;;;;;;;5157094;27;20054;-62
2023/03/05 06:25:09;;;;;;;10.57;2.42;;;;;;;;;;5154063;27;20071;-60
2023/03/05 06:27:35;;;;;;;5.35;1.63;;;;;;;;;;5167619;27;20576;-61
2023/03/05 06:30:03;;;;;;;3.15;1.85;;;;;;;;;;5168015;27;20464;-62
2023/03/05 06:32:29;;;;;;;3.55;1.60;;;;;;;;;;5167927;27;20156;-63
2023/03/05 06:34:56;;;;;;;3.92;1.60;;;;;;;;;;5167477;27;20508;-61
2023/03/05 06:37:22;;;;;;;6.55;2.13;;;;;;;;;;5166573;27;20613;-62
2023/03/05 06:39:49;;;;;;;6.90;1.77;;;;;;;;;;5167087;27;20054;-63
2023/03/05 06:42:18;;;;;;;4.03;1.70;;;;;;;;;;5167623;27;20099;-62
2023/03/05 06:44:44;;;;;;;5.68;1.63;;;;;;;;;;5148703;27;20097;-61
2023/03/05 06:47:13;;;;;;;6.82;2.22;;;;;;;;;;5168129;27;20291;-61
2023/03/05 06:49:39;;;;;;;8.20;1.90;;;;;;;;;;5166143;27;20057;-61
2023/03/05 06:52:08;;;;;;;4.78;2.00;;;;;;;;;;5166647;27;20073;-62
2023/03/05 06:54:35;;;;;;;9.77;1.83;;;;;;;;;;5159946;27;20138;-63
2023/03/05 06:57:01;;;;;;;6.43;2.20;;;;;;;;;;5156470;27;20050;-61
2023/03/05 06:59:28;;;;;;;10.48;2.20;;;;;;;;;;5166879;27;20070;-62
2023/03/05 07:01:54;;;;;;;7.15;1.98;;;;;;;;;;5151345;27;20104;-62
2023/03/05 07:04:23;;;;;;;13.57;2.40;;;;;;;;;;5160121;27;20492;-61
2023/03/05 07:06:49;;;;;;;11.57;2.10;;;;;;;;;;5146201;27;20051;-61
2023/03/05 07:09:15;;;;;;;7.65;2.67;;;;;;;;;;5127091;27;20062;-61
2023/03/05 07:11:42;;;;;;;4.38;1.90;;;;;;;;;;5147047;27;20773;-62
2023/03/05 07:14:08;;;;;;;6.72;1.95;;;;;;;;;;5145480;27;20207;-61
2023/03/05 07:16:34;;;;;;;6.93;1.75;;;;;;;;;;5165017;27;20054;-62
2023/03/05 07:19:03;;;;;;;6.25;2.00;;;;;;;;;;5166562;27;20133;-63
2023/03/05 07:21:30;;;;;;;5.55;1.83;;;;;;;;;;5158580;27;20517;-62
2023/03/05 07:23:58;;;;;;;3.97;2.13;;;;;;;;;;5163109;27;20063;-61
2023/03/05 07:26:25;;;;;;;6.85;1.67;;;;;;;;;;5164976;27;20050;-61
2023/03/05 07:28:51;;;;;;;4.10;1.63;;;;;;;;;;5160087;27;20054;-62
2023/03/05 07:31:19;;;;;;;6.07;1.70;;;;;;;;;;5162578;27;20050;-62
2023/03/05 07:33:46;;;;;;;2.53;1.35;;;;;;;;;;5166686;27;20051;-62
2023/03/05 07:36:13;;;;;;;4.65;1.85;;;;;;;;;;5159467;27;20485;-62
2023/03/05 07:38:39;;;;;;;2.20;1.30;;;;;;;;;;5163711;27;20046;-60
2023/03/05 07:41:07;;;;;;;7.07;1.65;;;;;;;;;;5153881;27;20075;-62
2023/03/05 07:43:34;;;;;;;4.85;1.40;;;;;;;;;;5159821;27;20055;-61
2023/03/05 07:46:04;;;;;;;2.45;1.48;;;;;;;;;;5166115;27;20058;-63
2023/03/05 07:48:30;;;;;;;3.22;2.40;;;;;;;;;;5154671;27;20146;-62
2023/03/05 07:51:07;;;;;;;2.13;1.08;;;;;;;;;;5165526;27;20060;-63
2023/03/05 07:53:34;;;;;;;2.78;1.60;;;;;;;;;;5164308;27;20083;-61
2023/03/05 07:56:00;;;;;;;4.47;1.52;;;;;;;;;;5159629;27;20077;-63
2023/03/05 07:58:27;;;;;;;4.57;1.55;;;;;;;;;;5154773;27;20074;-61
2023/03/05 08:00:53;;;;;;;4.93;1.70;;;;;;;;;;5159930;27;20086;-62
2023/03/05 08:03:20;;;;;;;6.55;2.17;;;;;;;;;;5150761;27;20108;-62
2023/03/05 08:05:46;;;;;;;2.58;1.38;;;;;;;;;;5146072;27;20054;-61
2023/03/05 08:08:13;;;;;;;5.30;1.55;;;;;;;;;;5127337;27;20153;-61
2023/03/05 08:10:39;;;;;;;3.35;1.20;;;;;;;;;;5145846;27;20051;-62
2023/03/05 08:13:05;;;;;;;5.30;1.67;;;;;;;;;;5165717;27;20082;-62
2023/03/05 08:15:32;;;;;;;4.65;1.55;;;;;;;;;;5162880;27;20740;-63
2023/03/05 08:17:58;;;;;;;4.05;1.60;;;;;;;;;;5160321;27;20488;-61
2023/03/05 08:20:25;;;;;;;4.55;1.63;;;;;;;;;;5164944;27;20133;-62
2023/03/05 08:22:52;;;;;;;3.78;1.45;;;;;;;;;;5166113;27;20638;-61
2023/03/05 08:25:18;;;;;;;9.82;2.95;;;;;;;;;;5164549;27;20651;-61
2023/03/05 08:27:45;;;;;;;4.95;1.65;;;;;;;;;;5177193;27;20074;-62
2023/03/05 08:30:13;;;;;;;3.28;1.70;;;;;;;;;;5160348;27;20054;-61
2023/03/05 08:32:40;;;;;;;5.60;1.70;;;;;;;;;;5164353;27;20051;-63
2023/03/05 08:35:08;;;;;;;7.72;1.60;;;;;;;;;;5165569;27;20426;-62
2023/03/05 08:37:35;;;;;;;3.08;1.50;;;;;;;;;;5148120;27;20039;-63
2023/03/05 08:40:02;;;;;;;2.88;1.40;;;;;;;;;;5157037;27;20472;-62
2023/03/05 08:42:28;;;;;;;3.22;1.50;;;;;;;;;;5165881;27;20046;-61
2023/03/05 08:44:54;;;;;;;2.53;1.40;;;;;;;;;;5165293;27;20569;-61
2023/03/05 08:47:24;;;;;;;2.30;1.65;;;;;;;;;;5162349;27;20128;-62
2023/03/05 08:49:54;;;;;;;2.50;1.58;;;;;;;;;;5146939;27;20589;-62
2023/03/05 08:52:21;;;;;;;2.63;1.77;;;;;;;;;;5144449;27;20058;-62
2023/03/05 08:54:47;;;;;;;8.85;2.30;;;;;;;;;;5154411;27;20528;-61
2023/03/05 08:57:14;;;;;;;2.78;1.60;;;;;;;;;;5165516;27;20492;-62
2023/03/05 08:59:40;;;;;;;5.18;2.15;;;;;;;;;;5164818;27;20355;-61
2023/03/05 09:02:08;;;;;;;4.10;1.80;;;;;;;;;;5157763;27;20600;-62
2023/03/05 09:04:36;;;;;;;5.45;2.38;;;;;;;;;;5165478;27;20463;-62
2023/03/05 09:07:02;;;;;;;2.88;2.15;;;;;;;;;;5163847;27;20532;-63
2023/03/05 09:09:29;;;;;;;6.43;2.20;;;;;;;;;;5165806;27;20445;-62
2023/03/05 09:11:56;;;;;;;3.33;2.00;;;;;;;;;;5145422;27;20051;-63
2023/03/05 09:14:23;;;;;;;4.20;1.98;;;;;;;;;;5165368;27;20601;-63
2023/03/05 09:16:49;;;;;;;4.45;1.65;;;;;;;;;;5162965;27;20067;-61
2023/03/05 09:19:16;;;;;;;1.92;1.60;;;;;;;;;;5163959;27;20058;-62
2023/03/05 09:21:42;;;;;;;3.05;1.98;;;;;;;;;;5162153;27;20094;-63
2023/03/05 09:24:08;;;;;;;3.08;1.80;;;;;;;;;;5165250;27;20527;-62
2023/03/05 09:26:35;;;;;;;4.18;2.20;;;;;;;;;;5162238;27;20661;-62
2023/03/05 09:29:02;;;;;;;4.43;1.70;;;;;;;;;;5160691;27;20596;-61
2023/03/05 09:31:28;;;;;;;4.40;2.35;;;;;;;;;;5165696;27;20488;-61
2023/03/05 09:33:55;;;;;;;2.45;1.58;;;;;;;;;;5150049;27;20651;-61
2023/03/05 09:36:26;;;;;;;3.70;2.00;;;;;;;;;;5145845;27;20481;-61
2023/03/05 09:38:52;;;;;;;4.15;1.80;;;;;;;;;;5143907;27;20112;-61
2023/03/05 09:41:19;;;;;;;3.78;2.08;;;;;;;;;;5146664;27;20043;-61
2023/03/05 09:43:53;;;;;;;3.03;2.08;;;;;;;;;;5158510;27;20141;-63
2023/03/05 09:46:26;;;;;;;2.60;1.40;;;;;;;;;;5144872;27;20048;-61
2023/03/05 09:48:57;;;;;;;3.38;1.42;;;;;;;;;;5143885;27;20388;-62
2023/03/05 09:51:24;;;;;;;2.88;2.10;;;;;;;;;;5145936;27;20204;-62
2023/03/05 09:54:00;;;;;;;4.85;1.83;;;;;;;;;;5154860;27;20753;-61
2023/03/05 09:56:30;;;;;;;2.75;1.58;;;;;;;;;;5144572;27;20097;-61
2023/03/05 09:59:00;;;;;;;4.18;1.95;;;;;;;;;;5157147;27;20283;-63
2023/03/05 10:01:34;;;;;;;6.32;1.42;;;;;;;;;;5154364;27;20465;-61
2023/03/05 10:04:13;;;;;;;4.13;1.50;;;;;;;;;;5144535;27;20519;-62
2023/03/05 10:06:53;;;;;;;7.15;1.90;;;;;;;;;;5149347;27;20104;-61
2023/03/05 10:09:19;;;;;;;5.22;1.17;;;;;;;;;;5158196;27;20057;-63
2023/03/05 10:11:57;;;;;;;3.03;1.30;;;;;;;;;;5130231;27;20147;-62
2023/03/05 10:14:34;;;;;;;8.65;2.38;;;;;;;;;;5159190;27;20047;-62
2023/03/05 10:17:09;;;;;;;2.85;1.67;;;;;;;;;;5158600;27;20492;-62
2023/03/05 10:19:42;;;;;;;3.60;0.98;;;;;;;;;;5158259;27;20112;-62
2023/03/05 10:22:27;;;;;;;5.85;0.85;;;;;;;;;;5162306;27;20043;-61
2023/03/05 10:24:53;;;;;;;2.50;1.08;;;;;;;;;;5155295;27;20077;-62
2023/03/05 10:27:22;;;;;;;4.30;1.38;;;;;;;;;;5147387;27;20055;-61
2023/03/05 10:29:52;;;;;;;2.35;1.17;;;;;;;;;;5155823;27;20050;-61
2023/03/05 10:32:18;;;;;;;5.53;1.42;;;;;;;;;;5163779;27;20043;-62
2023/03/05 10:34:47;;;;;;;3.03;1.02;;;;;;;;;;5144001;27;20424;-61
2023/03/05 10:37:20;;;;;;;1.27;0.93;;;;;;;;;;5155096;27;20535;-61
2023/03/05 10:40:19;;;;;;;6.43;1.35;;;;;;;;;;5150452;27;20436;-61
2023/03/05 10:42:48;;;;;;;3.13;1.50;;;;;;;;;;5097994;27;20051;-61
2023/03/05 10:45:16;;;;;;;3.22;0.90;;;;;;;;;;5154235;27;20463;-62
2023/03/05 10:47:46;;;;;;;4.85;1.25;;;;;;;;;;5153972;27;20328;-62
2023/03/05 10:50:15;;;;;;;3.53;1.17;;;;;;;;;;5155165;27;20977;-61
2023/03/05 10:52:47;;;;;;;3.45;1.05;;;;;;;;;;5154287;27;20078;-62
2023/03/05 10:55:16;;;;;;;4.30;1.00;;;;;;;;;;5155237;27;20055;-63
2023/03/05 10:57:43;;;;;;;3.85;0.90;;;;;;;;;;5154965;27;20043;-63
2023/03/05 11:00:15;;;;;;;1.55;0.73;;;;;;;;;;5157436;27;20059;-62
2023/03/05 11:03:01;;;;;;;2.83;1.25;;;;;;;;;;5157333;27;20083;-61
2023/03/05 11:05:38;;;;;;;2.92;0.90;;;;;;;;;;5159073;27;20516;-61
2023/03/05 11:08:22;;;;;;;2.78;0.90;;;;;;;;;;5153240;27;20526;-62
2023/03/05 11:11:04;;;;;;;6.07;1.05;;;;;;;;;;5154676;27;20043;-62
2023/03/05 11:13:31;;;;;;;5.32;1.17;;;;;;;;;;5156075;27;20057;-62
2023/03/05 11:16:03;;;;;;;1.55;0.70;;;;;;;;;;5163043;27;20534;-61
2023/03/05 11:18:33;;;;;;;5.40;1.27;;;;;;;;;;5161540;27;20134;-61
2023/03/05 11:21:27;;;;;;;2.58;0.88;;;;;;;;;;5166333;27;20482;-61
2023/03/05 11:24:14;;;;;;;1.65;1.02;;;;;;;;;;5146249;27;20082;-62
2023/03/05 11:26:55;;;;;;;4.00;1.25;;;;;;;;;;5155947;27;20055;-63
2023/03/05 11:29:23;;;;;;;4.75;1.05;;;;;;;;;;5146725;27;20432;-62
2023/03/05 11:31:50;;;;;;;1.75;0.85;;;;;;;;;;5146408;27;20043;-61
2023/03/05 11:34:16;;;;;;;13.13;1.52;;;;;;;;;;5146857;27;20078;-62
2023/03/05 11:36:57;;;;;;;1.55;0.77;;;;;;;;;;5145768;27;20051;-63
2023/03/05 11:39:24;;;;;;;3.35;0.88;;;;;;;;;;5152088;27;20062;-63
2023/03/05 11:41:58;;;;;;;2.45;1.05;;;;;;;;;;5145886;27;20101;-61
2023/03/05 11:44:43;;;;;;;0.52;0.43;;;;;;;;;;5146880;27;20051;-61
2023/03/05 11:47:24;;;;;;;4.47;0.52;;;;;;;;;;5149148;27;20058;-61
2023/03/05 11:49:59;;;;;;;1.67;0.50;;;;;;;;;;5155999;27;20100;-62
2023/03/05 11:52:30;;;;;;;1.88;0.70;;;;;;;;;;5162307;27;20051;-61
2023/03/05 11:55:06;;;;;;;4.40;1.15;;;;;;;;;;5152261;27;20431;-61
2023/03/05 11:57:39;;;;;;;1.42;0.65;;;;;;;;;;5163299;27;20047;-62
2023/03/05 12:00:12;;;;;;;0.80;0.73;;;;;;;;;;5166863;27;20379;-62
2023/03/05 12:02:38;;;;;;;4.00;0.90;;;;;;;;;;5165140;27;20038;-62
2023/03/05 12:05:06;;;;;;;1.48;0.57;;;;;;;;;;5165808;27;20105;-63
2023/03/05 12:07:38;;;;;;;2.25;0.80;;;;;;;;;;5166158;27;20595;-64
2023/03/05 12:10:05;;;;;;;1.75;0.70;;;;;;;;;;5150770;27;20047;-62
2023/03/05 12:12:36;;;;;;;1.20;0.70;;;;;;;;;;5155310;27;20043;-62
2023/03/05 12:15:17;;;;;;;2.65;1.23;;;;;;;;;;5154832;27;20047;-63
2023/03/05 12:17:48;;;;;;;7.45;0.80;;;;;;;;;;5150794;27;20058;-62
2023/03/05 12:20:14;;;;;;;1.30;0.52;;;;;;;;;;5150824;27;20051;-62
2023/03/05 12:22:42;;;;;;;1.42;1.00;;;;;;;;;;5149572;27;20504;-62
2023/03/05 12:25:27;;;;;;;2.47;0.80;;;;;;;;;;5152543;27;20047;-63
2023/03/05 12:27:53;;;;;;;2.53;1.38;;;;;;;;;;5149748;27;20054;-63
2023/03/05 12:30:35;;;;;;;2.40;0.80;;;;;;;;;;5161868;27;20051;-62
2023/03/05 12:33:03;;;;;;;1.88;0.65;;;;;;;;;;5161494;27;20054;-62
2023/03/05 12:35:30;;;;;;;2.33;0.60;;;;;;;;;;5163780;27;20477;-62
2023/03/05 12:37:59;;;;;;;1.05;0.68;;;;;;;;;;5165670;27;20051;-63
2023/03/05 12:40:28;;;;;;;2.78;0.75;;;;;;;;;;5153908;27;20140;-63
2023/03/05 12:43:00;;;;;;;3.40;1.02;;;;;;;;;;5158198;27;20054;-62
2023/03/05 12:45:28;;;;;;;4.90;1.40;;;;;;;;;;5165230;27;20047;-63
2023/03/05 12:47:55;;;;;;;2.75;0.82;;;;;;;;;;5159702;27;20059;-63
2023/03/05 12:50:27;;;;;;;2.17;0.65;;;;;;;;;;5159316;27;20115;-63
2023/03/05 12:53:03;;;;;;;3.65;1.00;;;;;;;;;;5153056;27;20043;-63
2023/03/05 12:55:34;;;;;;;2.50;0.75;;;;;;;;;;5161280;27;20569;-63
2023/03/05 12:58:02;;;;;;;4.53;0.68;;;;;;;;;;5155635;27;20815;-62
2023/03/05 13:00:48;;;;;;;2.28;0.85;;;;;;;;;;5149638;27;20043;-62
2023/03/05 13:03:34;;;;;;;1.17;0.57;;;;;;;;;;5149718;27;20104;-63
2023/03/05 13:06:03;;;;;;;7.13;1.23;;;;;;;;;;5147201;27;20063;-63
2023/03/05 13:08:34;;;;;;;3.05;1.00;;;;;;;;;;5144341;27;20066;-62
2023/03/05 13:11:03;;;;;;;2.67;0.95;;;;;;;;;;5145665;27;20479;-63
2023/03/05 13:13:33;;;;;;;2.17;0.60;;;;;;;;;;5145121;27;20087;-62
2023/03/05 13:16:00;;;;;;;1.42;0.70;;;;;;;;;;5134897;27;20130;-62
2023/03/05 13:18:28;;;;;;;1.20;0.70;;;;;;;;;;5144844;27;20051;-62
2023/03/05 13:21:25;;;;;;;0.45;0.40;;;;;;;;;;5144796;27;20139;-64
2023/03/05 13:23:58;;;;;;;3.25;1.10;;;;;;;;;;5123607;27;20055;-62
2023/03/05 13:26:28;;;;;;;2.03;0.80;;;;;;;;;;5149858;27;20057;-62
2023/03/05 13:29:10;;;;;;;7.00;0.93;;;;;;;;;;5164268;27;20142;-62
2023/03/05 13:31:52;;;;;;;3.17;0.90;;;;;;;;;;5161616;27;20055;-63
2023/03/05 13:34:29;;;;;;;0.85;0.80;;;;;;;;;;5150682;27;20527;-62
2023/03/05 13:37:17;;;;;;;3.15;1.05;;;;;;;;;;5144583;27;20057;-62
2023/03/05 13:39:55;;;;;;;3.92;1.35;;;;;;;;;;5125628;27;20479;-62
2023/03/05 13:42:27;;;;;;;2.88;1.15;;;;;;;;;;5163208;27;20162;-63
2023/03/05 13:45:04;;;;;;;4.95;1.00;;;;;;;;;;5151053;27;20043;-63
2023/03/05 13:47:32;;;;;;;3.42;0.93;;;;;;;;;;5156567;27;20530;-63
2023/03/05 13:50:00;;;;;;;1.75;1.05;;;;;;;;;;5164710;27;20119;-62
2023/03/05 13:52:29;;;;;;;4.00;1.10;;;;;;;;;;5153237;27;20534;-63
2023/03/05 13:54:57;;;;;;;4.25;1.30;;;;;;;;;;5164565;27;20158;-63
2023/03/05 13:57:43;;;;;;;3.50;1.05;;;;;;;;;;5161486;27;20143;-63
2023/03/05 14:00:09;;;;;;;;;;;;;;;;;;5159481;27;20054;-62
2023/03/05 14:02:41;;;;;;;2.20;1.05;;;;;;;;;;5146905;27;45086;-61
2023/03/05 14:05:13;;;;;;;1.33;0.80;;;;;;;;;;5157875;27;20073;-62
2023/03/05 14:07:40;;;;;;;3.95;1.00;;;;;;;;;;5142199;27;20051;-62
2023/03/05 14:10:25;;;;;;;1.38;0.98;;;;;;;;;;5143676;27;20104;-64
2023/03/05 14:12:51;;;;;;;2.40;1.00;;;;;;;;;;5152242;27;20095;-62
2023/03/05 14:15:20;;;;;;;1.95;0.85;;;;;;;;;;5148376;27;20047;-62
2023/03/05 14:17:46;;;;;;;2.67;0.95;;;;;;;;;;5142639;27;20055;-64
2023/03/05 14:20:21;;;;;;;7.13;0.70;;;;;;;;;;5154373;27;20410;-65
2023/03/05 14:22:49;;;;;;;1.92;1.00;;;;;;;;;;5166615;27;20054;-64
2023/03/05 14:25:36;;;;;;;3.60;1.00;;;;;;;;;;5149690;27;20551;-64
2023/03/05 14:28:04;;;;;;;2.65;0.90;;;;;;;;;;5161891;27;20124;-64
2023/03/05 14:30:30;;;;;;;7.90;1.73;;;;;;;;;;5154939;27;20127;-63
2023/03/05 14:32:58;;;;;;;1.80;1.20;;;;;;;;;;5152842;27;20208;-63
2023/03/05 14:35:26;;;;;;;1.77;1.25;;;;;;;;;;5153647;27;20126;-61
2023/03/05 14:37:54;;;;;;;3.67;1.40;;;;;;;;;;5157206;27;20055;-64
2023/03/05 14:40:31;;;;;;;4.45;1.75;;;;;;;;;;5164583;27;20043;-64
2023/03/05 14:43:02;;;;;;;3.38;1.67;;;;;;;;;;5160815;27;20610;-64
2023/03/05 14:45:35;;;;;;;2.67;1.40;;;;;;;;;;5156863;27;20103;-64
2023/03/05 14:48:03;;;;;;;3.80;1.60;;;;;;;;;;5159921;27;20062;-62